Coxs Mills, West Virginia
Current Conditions -  °F | °C
As of 12:55 PM on Thursday 30 Oct 2014 (Local Time) from KW22 Reporting Station
Overcast Overcast  
Wind Chill: 45°   Ceiling: 2500
Heat Index: 45°   Visibility: 10mi
Dew Point: 36°   Wind: 0mph
Humidity: 71%   Direction: NA
Pressure: 30.1"   Gusts: NA
Location:  39.04°N, 80.83°W
Report Text: KW22 301655Z AUTO 00000KT 10SM BKN025 BKN029 OVC036 07/02 A3010 RMK AO2
Loading
Personal Weather Stations






























Interactive Weather Map
Tropical Storm Tracking
New forecast layout! Learn more

10-Day Weather Forecast

Advertisements
Track Severe Weather on mobile